createdAt,value
2019-02-28T00:00:42.693Z,2.59
2019-02-28T00:03:11.536Z,2.62
2019-02-28T00:05:42.169Z,2.54
2019-02-28T00:08:11.314Z,2.26
2019-02-28T00:10:40.373Z,2.56
2019-02-28T00:13:09.023Z,2.56
2019-02-28T00:15:38.096Z,2.49
2019-02-28T00:18:10.156Z,2.30
2019-02-28T00:20:39.197Z,2.17
2019-02-28T00:23:07.860Z,2.07
2019-02-28T00:25:38.082Z,2.14
2019-02-28T00:28:09.581Z,2.08
2019-02-28T00:30:40.819Z,2.10
2019-02-28T00:33:09.139Z,2.23
2019-02-28T00:35:40.973Z,2.16
2019-02-28T00:38:09.829Z,2.07
2019-02-28T00:40:59.639Z,2.04
2019-02-28T00:43:31.201Z,2.10
2019-02-28T00:46:00.653Z,2.05
2019-02-28T00:48:31.615Z,2.01
2019-02-28T00:51:00.479Z,1.95
2019-02-28T00:53:29.257Z,1.96
2019-02-28T00:55:58.080Z,1.94
2019-02-28T00:58:29.015Z,1.88
2019-02-28T01:00:57.536Z,1.84
2019-02-28T01:03:27.296Z,1.86
2019-02-28T01:06:01.726Z,1.87
2019-02-28T01:08:30.856Z,1.75
2019-02-28T01:11:00.941Z,1.60
2019-02-28T01:13:29.952Z,1.63
2019-02-28T01:15:58.963Z,1.62
2019-02-28T01:18:27.600Z,1.56
2019-02-28T01:20:56.647Z,1.58
2019-02-28T01:23:25.811Z,1.57
2019-02-28T01:25:58.090Z,1.68
2019-02-28T01:28:27.707Z,1.76
2019-02-28T01:30:57.432Z,1.68
2019-02-28T01:33:26.437Z,1.62
2019-02-28T01:35:55.260Z,1.49
2019-02-28T01:38:25.101Z,1.33
2019-02-28T01:40:54.057Z,1.40
2019-02-28T01:43:28.317Z,1.68
2019-02-28T01:45:54.039Z,1.71
2019-02-28T01:48:25.477Z,1.77
2019-02-28T01:50:55.169Z,1.92
2019-02-28T01:53:24.078Z,2.00
2019-02-28T01:55:54.625Z,1.84
2019-02-28T01:58:23.438Z,1.80
2019-02-28T02:00:53.627Z,1.65
2019-02-28T02:03:22.528Z,1.63
2019-02-28T02:05:53.196Z,1.71
2019-02-28T02:08:21.876Z,1.64
2019-02-28T02:10:55.840Z,1.66
2019-02-28T02:13:23.679Z,1.58
2019-02-28T02:15:52.759Z,1.47
2019-02-28T02:18:21.782Z,1.38
2019-02-28T02:20:52.393Z,1.30
2019-02-28T02:23:22.448Z,1.30
2019-02-28T02:25:51.111Z,1.21
2019-02-28T02:28:20.203Z,1.22
2019-02-28T02:30:50.955Z,1.15
2019-02-28T02:33:19.750Z,1.22
2019-02-28T02:35:50.380Z,1.23
2019-02-28T02:38:19.097Z,1.30
2019-02-28T02:40:49.846Z,1.16
2019-02-28T02:43:22.141Z,1.28
2019-02-28T02:45:49.228Z,1.12
2019-02-28T02:48:18.473Z,1.12
2019-02-28T02:50:47.091Z,1.12
2019-02-28T02:53:15.949Z,1.12
2019-02-28T02:55:44.843Z,1.27
2019-02-28T02:58:16.993Z,1.32
2019-02-28T03:00:50.153Z,1.29
2019-02-28T03:03:16.842Z,1.21
2019-02-28T03:05:45.751Z,1.10
2019-02-28T03:08:14.619Z,1.08
2019-02-28T03:10:44.648Z,0.94
2019-02-28T03:13:13.412Z,0.87
2019-02-28T03:15:47.105Z,0.93
2019-02-28T03:18:20.554Z,0.82
2019-02-28T03:20:48.970Z,0.71
2019-02-28T03:23:18.011Z,0.70
2019-02-28T03:25:47.064Z,0.78
2019-02-28T03:28:16.101Z,0.60
2019-02-28T03:30:44.793Z,0.73
2019-02-28T03:33:27.476Z,0.57
2019-02-28T03:35:48.376Z,0.56
2019-02-28T03:38:17.025Z,0.55
2019-02-28T03:40:46.126Z,0.64
2019-02-28T03:43:15.166Z,0.70
2019-02-28T03:45:44.438Z,0.76
2019-02-28T03:48:13.302Z,0.64
2019-02-28T03:50:41.959Z,0.49
2019-02-28T03:53:19.993Z,0.46
2019-02-28T03:55:47.003Z,0.35
2019-02-28T03:58:15.668Z,0.44
2019-02-28T04:00:45.989Z,0.53
2019-02-28T04:03:16.718Z,0.55
2019-02-28T04:05:47.040Z,0.64
2019-02-28T04:08:15.714Z,0.66
2019-02-28T04:10:46.768Z,0.57
2019-02-28T04:13:19.128Z,0.46
2019-02-28T04:16:01.542Z,0.42
2019-02-28T04:18:19.685Z,0.42
2019-02-28T04:20:48.390Z,0.45
2019-02-28T04:23:17.030Z,0.51
2019-02-28T04:25:46.096Z,0.58
2019-02-28T04:28:18.664Z,0.57
2019-02-28T04:30:46.310Z,0.55
2019-02-28T04:33:15.877Z,0.62
2019-02-28T04:35:46.759Z,0.77
2019-02-28T04:38:20.485Z,0.62
2019-02-28T04:40:46.304Z,0.69
2019-02-28T04:43:15.139Z,0.79
2019-02-28T04:46:04.818Z,0.75
2019-02-28T04:48:33.866Z,0.73
2019-02-28T04:51:05.713Z,0.74
2019-02-28T04:53:33.702Z,0.85
2019-02-28T04:56:03.771Z,0.88
2019-02-28T04:58:32.430Z,0.83
2019-02-28T05:01:01.607Z,0.67
2019-02-28T05:03:32.413Z,0.62
2019-02-28T05:06:01.066Z,0.63
2019-02-28T05:08:30.793Z,0.60
2019-02-28T05:11:03.096Z,0.56
2019-02-28T05:13:31.734Z,0.58
2019-02-28T05:16:00.853Z,0.62
2019-02-28T05:18:31.397Z,0.50
2019-02-28T05:20:59.989Z,0.54
2019-02-28T05:23:28.734Z,0.55
2019-02-28T05:26:01.397Z,0.54
2019-02-28T05:28:30.507Z,0.46
2019-02-28T05:31:01.346Z,0.31
2019-02-28T05:33:30.382Z,0.28
2019-02-28T05:36:00.165Z,0.27
2019-02-28T05:38:30.934Z,0.38
2019-02-28T05:40:59.640Z,0.56
2019-02-28T05:43:29.150Z,0.79
2019-02-28T05:45:59.484Z,0.84
2019-02-28T05:48:28.420Z,0.92
2019-02-28T05:50:57.147Z,0.95
2019-02-28T05:53:25.783Z,0.92
2019-02-28T05:55:58.914Z,0.87
2019-02-28T06:22:59.458Z,0.98
2019-02-28T06:25:30.261Z,1.02
2019-02-28T06:27:58.997Z,0.98
2019-02-28T06:30:27.957Z,1.09
2019-02-28T06:32:59.186Z,0.92
2019-02-28T06:35:27.444Z,0.90
2019-02-28T06:37:56.571Z,0.86
2019-02-28T06:40:25.665Z,0.88
2019-02-28T06:42:55.825Z,0.94
2019-02-28T06:45:24.661Z,0.91
2019-02-28T06:47:59.521Z,0.88
2019-02-28T06:50:28.603Z,0.95
2019-02-28T06:52:59.349Z,1.15
2019-02-28T06:55:29.754Z,1.21
2019-02-28T06:58:00.019Z,1.31
2019-02-28T07:00:28.825Z,1.44
2019-02-28T07:02:57.750Z,1.63
2019-02-28T07:05:26.467Z,1.76
2019-02-28T07:07:55.294Z,1.91
2019-02-28T07:10:26.590Z,2.02
2019-02-28T07:12:57.171Z,2.11
2019-02-28T07:15:27.820Z,2.25
2019-02-28T07:17:56.611Z,2.40
2019-02-28T07:20:26.786Z,2.52
2019-02-28T07:22:55.839Z,2.66
2019-02-28T07:25:27.564Z,3.22
2019-02-28T07:28:01.584Z,3.33
2019-02-28T07:30:29.029Z,3.40
2019-02-28T07:33:01.031Z,3.38
2019-02-28T07:35:33.087Z,3.46
2019-02-28T07:38:00.536Z,3.81
2019-02-28T07:40:29.322Z,3.95
2019-02-28T07:43:01.564Z,4.13
2019-02-28T07:45:33.218Z,4.22
2019-02-28T07:48:02.738Z,4.32
2019-02-28T07:50:33.530Z,4.32
2019-02-28T07:53:05.575Z,4.35
2019-02-28T07:55:33.500Z,4.41
2019-02-28T07:58:02.143Z,4.75
2019-02-28T08:00:30.965Z,5.55
2019-02-28T08:02:59.762Z,6.23
2019-02-28T08:05:31.136Z,7.19
2019-02-28T08:08:03.216Z,7.19
2019-02-28T08:10:35.955Z,7.50
2019-02-28T08:13:06.479Z,7.50
2019-02-28T08:15:35.061Z,7.65
2019-02-28T08:18:06.279Z,7.82
2019-02-28T08:21:15.677Z,7.82
2019-02-28T08:24:16.443Z,8.01
2019-02-28T08:30:30.510Z,8.12
2019-02-28T08:33:29.925Z,8.24
2019-02-28T08:36:30.011Z,8.29
2019-02-28T08:39:23.086Z,8.34
2019-02-28T08:42:38.496Z,8.32
2019-02-28T08:45:06.150Z,8.42
2019-02-28T08:47:38.988Z,8.48
2019-02-28T08:50:10.927Z,8.54
2019-02-28T08:52:43.073Z,8.63
2019-02-28T08:55:14.745Z,8.58
2019-02-28T08:57:54.163Z,8.56
2019-02-28T09:00:18.691Z,8.57
2019-02-28T09:02:52.430Z,8.51
2019-02-28T09:05:25.634Z,8.51
2019-02-28T09:07:58.286Z,8.65
2019-02-28T09:10:28.358Z,8.79
2019-02-28T09:12:58.535Z,8.83
2019-02-28T09:15:31.023Z,8.94
2019-02-28T09:18:02.366Z,9.07
2019-02-28T09:20:33.002Z,9.12
2019-02-28T09:23:03.123Z,9.23
2019-02-28T09:25:33.267Z,9.40
2019-02-28T09:28:01.870Z,9.47
2019-02-28T09:30:33.063Z,9.51
2019-02-28T09:33:03.742Z,9.62
2019-02-28T09:35:34.872Z,9.62
2019-02-28T09:38:12.972Z,9.71
2019-02-28T09:40:38.684Z,9.80
2019-02-28T09:43:08.941Z,9.82
2019-02-28T09:45:40.233Z,9.84
2019-02-28T09:48:10.856Z,9.90
2019-02-28T09:50:41.100Z,10.04
2019-02-28T09:53:09.690Z,9.94
2019-02-28T09:55:40.247Z,10.07
2019-02-28T09:58:10.677Z,10.31
2019-02-28T10:00:39.257Z,10.55
2019-02-28T10:03:09.796Z,10.66
2019-02-28T10:05:42.361Z,10.69
2019-02-28T10:08:13.651Z,10.80
2019-02-28T10:10:42.225Z,10.86
2019-02-28T10:13:14.495Z,10.92
2019-02-28T10:15:45.697Z,11.10
2019-02-28T10:18:16.657Z,11.01
2019-02-28T10:20:49.894Z,11.03
2019-02-28T10:23:21.453Z,10.97
2019-02-28T10:25:53.787Z,10.92
2019-02-28T10:28:25.521Z,10.97
2019-02-28T10:30:59.330Z,11.01
2019-02-28T10:33:27.943Z,11.05
2019-02-28T10:35:56.917Z,11.06
2019-02-28T10:38:29.514Z,11.05
2019-02-28T10:41:00.561Z,11.06
2019-02-28T10:43:31.155Z,11.07
2019-02-28T10:46:01.512Z,11.09
2019-02-28T10:48:31.610Z,11.20
2019-02-28T10:51:12.809Z,11.24
2019-02-28T10:53:36.264Z,11.22
2019-02-28T10:56:04.291Z,11.25
2019-02-28T10:58:35.059Z,11.24
2019-02-28T11:01:07.706Z,11.27
2019-02-28T11:03:37.425Z,11.32
2019-02-28T11:06:06.334Z,11.38
2019-02-28T11:08:35.510Z,11.45
2019-02-28T11:11:07.378Z,11.47
2019-02-28T11:13:38.730Z,11.43
2019-02-28T11:16:09.066Z,11.57
2019-02-28T11:18:41.897Z,11.59
2019-02-28T11:21:11.700Z,11.66
2019-02-28T11:23:41.827Z,11.80
2019-02-28T11:26:10.516Z,11.80
2019-02-28T11:28:39.075Z,11.69
2019-02-28T11:31:11.233Z,11.68
2019-02-28T11:33:41.145Z,11.64
2019-02-28T11:36:10.481Z,11.70
2019-02-28T11:38:39.102Z,11.71
2019-02-28T11:41:08.048Z,11.82
2019-02-28T11:43:38.553Z,11.94
2019-02-28T11:46:08.431Z,11.95
2019-02-28T11:48:37.350Z,11.94
2019-02-28T11:51:06.359Z,12.04
2019-02-28T11:53:39.364Z,11.93
2019-02-28T11:56:09.781Z,12.01
2019-02-28T11:58:40.783Z,12.02
2019-02-28T12:01:11.327Z,12.03
2019-02-28T12:03:42.056Z,11.95
2019-02-28T12:06:10.645Z,12.00
2019-02-28T12:08:41.671Z,12.08
2019-02-28T12:11:14.099Z,12.19
2019-02-28T12:13:44.239Z,12.33
2019-02-28T12:16:16.216Z,12.30
2019-02-28T12:18:47.400Z,12.30
2019-02-28T12:21:17.551Z,12.26
2019-02-28T12:23:46.872Z,12.30
2019-02-28T12:26:17.706Z,12.22
2019-02-28T12:28:46.493Z,12.16
2019-02-28T12:31:15.116Z,12.11
2019-02-28T12:33:45.528Z,12.01
2019-02-28T12:36:15.275Z,11.96
2019-02-28T12:38:43.978Z,11.99
2019-02-28T12:41:14.398Z,11.99
2019-02-28T12:43:46.418Z,11.99
2019-02-28T12:46:16.700Z,12.06
2019-02-28T12:48:48.344Z,12.16
2019-02-28T12:51:17.345Z,12.11
2019-02-28T12:53:46.131Z,12.22
2019-02-28T12:56:15.341Z,12.48
2019-02-28T12:58:43.950Z,12.53
2019-02-28T13:01:15.256Z,12.45
2019-02-28T13:03:45.322Z,12.52
2019-02-28T13:06:23.408Z,12.60
2019-02-28T13:08:53.590Z,12.82
2019-02-28T13:11:27.038Z,12.84
2019-02-28T13:13:55.621Z,12.87
2019-02-28T13:16:28.335Z,12.84
2019-02-28T13:18:58.619Z,12.95
2019-02-28T13:21:31.269Z,13.00
2019-02-28T13:24:02.079Z,13.04
2019-02-28T13:26:33.767Z,13.14
2019-02-28T13:29:02.897Z,13.10
2019-02-28T13:31:31.707Z,13.02
2019-02-28T13:34:01.226Z,13.07
2019-02-28T13:36:31.508Z,13.07
2019-02-28T13:39:04.368Z,13.12
2019-02-28T13:41:34.541Z,13.15
2019-02-28T13:44:07.640Z,13.14
2019-02-28T13:46:36.671Z,13.21
2019-02-28T13:49:08.495Z,13.36
2019-02-28T13:51:42.096Z,13.42
2019-02-28T13:54:10.022Z,13.52
2019-02-28T13:56:42.317Z,13.52
2019-02-28T13:59:10.923Z,13.45
2019-02-28T14:01:40.163Z,13.52
2019-02-28T14:04:08.961Z,13.60
2019-02-28T14:06:37.978Z,13.56
2019-02-28T14:09:08.489Z,13.59
2019-02-28T14:11:45.098Z,13.65
2019-02-28T14:14:13.106Z,13.53
2019-02-28T14:16:43.526Z,13.47
2019-02-28T14:19:19.974Z,13.50
2019-02-28T14:21:47.253Z,13.54
2019-02-28T14:24:17.693Z,13.46
2019-02-28T14:26:49.503Z,13.48
2019-02-28T14:29:19.017Z,13.49
2019-02-28T14:31:48.169Z,13.36
2019-02-28T14:34:18.802Z,13.27
2019-02-28T14:36:50.771Z,13.25
2019-02-28T14:39:20.756Z,13.29
2019-02-28T14:41:50.924Z,13.32
2019-02-28T14:44:20.707Z,13.33
2019-02-28T14:46:49.826Z,13.33
2019-02-28T14:49:20.509Z,13.37
2019-02-28T14:51:49.666Z,13.36
2019-02-28T14:54:18.408Z,13.40
2019-02-28T14:56:48.568Z,13.35
2019-02-28T14:59:18.982Z,13.32
2019-02-28T15:01:52.715Z,13.42
2019-02-28T15:04:20.181Z,13.41
2019-02-28T15:06:50.596Z,13.50
2019-02-28T15:09:20.948Z,13.46
2019-02-28T15:11:53.209Z,13.38
2019-02-28T15:14:21.781Z,13.44
2019-02-28T15:16:55.140Z,13.50
2019-02-28T15:19:29.568Z,13.59
2019-02-28T15:21:58.765Z,13.59
2019-02-28T15:24:27.768Z,13.58
2019-02-28T15:26:56.960Z,13.64
2019-02-28T15:29:27.195Z,13.60
2019-02-28T15:31:58.456Z,13.53
2019-02-28T15:34:27.082Z,13.50
2019-02-28T15:36:59.310Z,13.46
2019-02-28T15:39:26.443Z,13.36
2019-02-28T15:41:57.746Z,13.34
2019-02-28T15:44:29.182Z,13.29
2019-02-28T15:47:19.511Z,13.31
2019-02-28T15:49:46.758Z,13.28
2019-02-28T15:52:15.567Z,13.30
2019-02-28T15:54:46.283Z,13.24
2019-02-28T15:57:19.661Z,13.25
2019-02-28T15:59:51.739Z,13.15
2019-02-28T16:02:23.326Z,13.10
2019-02-28T16:04:57.732Z,13.09
2019-02-28T16:07:32.497Z,13.10
2019-02-28T16:34:08.572Z,12.63
2019-02-28T16:36:40.727Z,12.59
2019-02-28T16:39:09.594Z,12.62
2019-02-28T16:41:40.970Z,12.57
2019-02-28T16:44:10.043Z,12.54
2019-02-28T16:46:40.660Z,12.41
2019-02-28T16:49:12.547Z,12.27
2019-02-28T16:51:41.485Z,12.11
2019-02-28T16:54:10.486Z,12.09
2019-02-28T16:56:40.452Z,11.98
2019-02-28T16:59:10.756Z,11.89
2019-02-28T17:01:40.720Z,11.83
2019-02-28T17:04:13.585Z,11.84
2019-02-28T17:06:45.618Z,11.90
2019-02-28T17:09:37.063Z,11.84
2019-02-28T17:12:31.135Z,11.86
2019-02-28T17:14:59.947Z,11.91
2019-02-28T17:17:34.607Z,11.90
2019-02-28T17:20:06.360Z,11.89
2019-02-28T17:22:34.734Z,11.89
2019-02-28T17:25:03.804Z,11.94
2019-02-28T17:27:38.674Z,11.95
2019-02-28T17:30:51.429Z,11.91
2019-02-28T17:34:17.384Z,11.92
2019-02-28T17:37:28.996Z,11.93
2019-02-28T17:40:37.871Z,11.92
2019-02-28T17:43:49.999Z,12.09
2019-02-28T17:47:09.992Z,12.10
2019-02-28T17:50:19.636Z,12.02
2019-02-28T17:53:20.940Z,12.00
2019-02-28T17:56:34.343Z,11.94
2019-02-28T17:59:44.829Z,11.98
2019-02-28T18:02:59.458Z,11.95
2019-02-28T18:06:18.670Z,12.02
2019-02-28T18:08:59.196Z,12.01
2019-02-28T18:12:20.338Z,11.92
2019-02-28T18:15:13.753Z,11.86
2019-02-28T18:18:41.630Z,11.88
2019-02-28T18:21:50.641Z,11.83
2019-02-28T18:24:54.087Z,11.78
2019-02-28T18:27:53.839Z,11.81
2019-02-28T18:31:04.837Z,11.79
2019-02-28T18:33:34.011Z,11.86
2019-02-28T18:36:05.082Z,11.91
2019-02-28T18:38:35.738Z,11.91
2019-02-28T18:41:06.561Z,11.88
2019-02-28T18:43:35.737Z,11.77
2019-02-28T18:46:05.991Z,11.70
2019-02-28T18:48:35.255Z,11.63
2019-02-28T18:51:04.341Z,11.57
2019-02-28T18:53:33.399Z,11.49
2019-02-28T18:56:04.079Z,11.41
2019-02-28T18:58:33.282Z,11.28
2019-02-28T19:01:02.547Z,11.19
2019-02-28T19:03:31.516Z,11.04
2019-02-28T19:06:00.298Z,10.96
2019-02-28T19:08:29.293Z,10.83
2019-02-28T19:10:58.398Z,10.80
2019-02-28T19:13:27.460Z,10.77
2019-02-28T19:15:56.765Z,10.76
2019-02-28T19:18:26.354Z,10.80
2019-02-28T19:20:58.223Z,10.83
2019-02-28T19:23:27.683Z,10.99
2019-02-28T19:25:56.874Z,10.98
2019-02-28T19:28:25.651Z,11.07
2019-02-28T19:30:58.075Z,11.11
2019-02-28T19:33:30.751Z,11.07
2019-02-28T19:36:02.726Z,11.08
2019-02-28T19:38:31.592Z,11.06
2019-02-28T19:41:00.629Z,11.10
2019-02-28T19:43:30.384Z,11.04
2019-02-28T19:46:00.050Z,11.01
2019-02-28T19:48:29.207Z,10.97
2019-02-28T19:50:58.339Z,11.03
2019-02-28T19:53:27.265Z,11.02
2019-02-28T19:55:56.836Z,11.04
2019-02-28T19:58:27.570Z,11.01
2019-02-28T20:00:56.590Z,11.01
2019-02-28T20:03:25.953Z,10.98
2019-02-28T20:05:55.399Z,10.90
2019-02-28T20:08:25.867Z,10.94
2019-02-28T20:10:55.219Z,10.92
2019-02-28T20:13:24.284Z,10.87
2019-02-28T20:15:55.681Z,10.80
2019-02-28T20:18:25.223Z,10.69
2019-02-28T20:20:54.328Z,10.57
2019-02-28T20:23:25.040Z,10.42
2019-02-28T20:25:53.868Z,10.33
2019-02-28T20:28:22.647Z,10.29
2019-02-28T20:30:51.715Z,10.21
2019-02-28T20:33:22.204Z,10.11
2019-02-28T20:35:53.886Z,10.08
2019-02-28T20:38:22.891Z,10.09
2019-02-28T20:40:53.653Z,10.10
2019-02-28T20:43:22.821Z,10.07
2019-02-28T20:45:51.728Z,9.99
2019-02-28T20:48:20.520Z,9.96
2019-02-28T20:50:49.185Z,9.80
2019-02-28T20:53:18.123Z,9.74
2019-02-28T20:55:48.308Z,9.73
2019-02-28T20:58:18.868Z,9.64
2019-02-28T21:00:47.658Z,9.63
2019-02-28T21:03:16.450Z,9.56
2019-02-28T21:05:45.578Z,9.55
2019-02-28T21:08:17.458Z,9.53
2019-02-28T21:10:46.722Z,9.52
2019-02-28T21:13:15.423Z,9.52
2019-02-28T21:15:44.558Z,9.49
2019-02-28T21:18:16.130Z,9.44
2019-02-28T21:20:46.519Z,9.49
2019-02-28T21:23:15.473Z,9.42
2019-02-28T21:25:44.721Z,9.39
2019-02-28T21:28:15.334Z,9.38
2019-02-28T21:30:43.959Z,9.37
2019-02-28T21:33:12.885Z,9.35
2019-02-28T21:35:46.204Z,9.32
2019-02-28T21:38:14.862Z,9.29
2019-02-28T21:40:45.153Z,9.32
2019-02-28T21:43:13.876Z,9.27
2019-02-28T21:45:44.963Z,9.27
2019-02-28T21:48:13.909Z,9.28
2019-02-28T21:50:43.099Z,9.27
2019-02-28T21:53:12.043Z,9.24
2019-02-28T21:55:40.972Z,9.23
2019-02-28T21:58:09.820Z,9.28
2019-02-28T22:00:39.126Z,9.29
2019-02-28T22:03:07.883Z,9.29
2019-02-28T22:05:37.083Z,9.30
2019-02-28T22:08:05.725Z,9.27
2019-02-28T22:10:34.854Z,9.24
2019-02-28T22:13:04.751Z,9.16
2019-02-28T22:15:33.789Z,9.05
2019-02-28T22:18:02.612Z,9.00
2019-02-28T22:20:31.576Z,9.00
2019-02-28T22:23:00.773Z,9.01
2019-02-28T22:25:32.605Z,9.11
2019-02-28T22:28:02.813Z,9.35
2019-02-28T22:30:56.121Z,9.56
2019-02-28T22:34:04.022Z,9.61
2019-02-28T22:36:41.591Z,9.59
2019-02-28T22:39:10.319Z,9.49
2019-02-28T22:41:39.563Z,9.42
2019-02-28T22:44:08.188Z,9.38
2019-02-28T22:46:37.283Z,9.42
2019-02-28T22:49:06.337Z,9.36
2019-02-28T22:51:36.610Z,9.40
2019-02-28T22:54:06.809Z,9.36
2019-02-28T22:56:37.749Z,9.28
2019-02-28T22:59:06.565Z,9.22
2019-02-28T23:01:36.122Z,9.19
2019-02-28T23:04:06.610Z,9.13
2019-02-28T23:06:35.281Z,9.06
2019-02-28T23:09:05.696Z,9.00
2019-02-28T23:11:34.677Z,8.93
2019-02-28T23:14:05.636Z,8.86
2019-02-28T23:16:35.002Z,8.83
2019-02-28T23:19:03.881Z,8.75
2019-02-28T23:21:32.946Z,8.73
2019-02-28T23:24:01.823Z,8.73
2019-02-28T23:26:30.588Z,8.70
2019-02-28T23:29:15.602Z,8.67
2019-02-28T23:32:15.802Z,8.62
2019-02-28T23:34:53.255Z,8.60
2019-02-28T23:37:23.937Z,8.57
2019-02-28T23:39:53.898Z,8.58
2019-02-28T23:42:22.922Z,8.54
2019-02-28T23:44:51.752Z,8.60
2019-02-28T23:47:20.803Z,8.71
2019-02-28T23:49:50.048Z,8.68
2019-02-28T23:52:19.027Z,8.67
2019-02-28T23:54:48.261Z,8.71
2019-02-28T23:57:17.129Z,8.73
2019-02-28T23:59:47.613Z,8.73
